Time;durP1;ratioP1;P1;durP2;ratioP2;P2;SDS_P1;SDS_P2;PMS_P1;PMS_P2;Temp;Humidity;BMP_temperature;BMP_pressure;BME280_temperature;BME280_humidity;BME280_pressure;Samples;Min_cycle;Max_cycle;Signal;HPM_P1;HPM_P2
2022/03/07 00:01:51;;;;;;;31.50;21.60;;;-0.20;99.90;;;;;;4960012;28;20211;-72
2022/03/07 00:04:19;;;;;;;29.67;21.40;;;-0.30;99.90;;;;;;4960025;28;20259;-71
2022/03/07 00:06:48;;;;;;;30.75;20.00;;;-0.20;99.90;;;;;;4959963;28;20216;-72
2022/03/07 00:09:17;;;;;;;28.60;19.02;;;-0.20;99.90;;;;;;4959731;28;20339;-71
2022/03/07 00:11:45;;;;;;;28.90;20.83;;;-0.20;99.90;;;;;;4960306;28;20208;-72
2022/03/07 00:14:13;;;;;;;31.67;19.00;;;-0.20;99.90;;;;;;4959783;28;20200;-71
2022/03/07 00:16:41;;;;;;;31.10;20.38;;;-0.30;99.90;;;;;;4959942;28;20307;-72
2022/03/07 00:19:09;;;;;;;31.00;17.98;;;-0.30;99.90;;;;;;4960301;28;20315;-72
2022/03/07 00:21:37;;;;;;;32.38;18.27;;;-0.20;99.90;;;;;;4959587;28;20208;-74
2022/03/07 00:24:05;;;;;;;38.58;20.52;;;-0.20;99.90;;;;;;4959980;28;20204;-72
2022/03/07 00:26:35;;;;;;;24.80;18.77;;;-0.20;99.90;;;;;;4959848;28;20228;-72
2022/03/07 00:29:04;;;;;;;25.77;17.98;;;-0.10;99.90;;;;;;4959475;28;20260;-72
2022/03/07 00:31:32;;;;;;;31.90;20.23;;;-0.10;99.90;;;;;;4963402;28;20214;-72
2022/03/07 00:34:00;;;;;;;28.85;19.23;;;-0.10;99.90;;;;;;4963843;28;20207;-72
2022/03/07 00:36:28;;;;;;;30.70;19.90;;;-0.20;99.90;;;;;;4963276;28;20211;-71
2022/03/07 00:38:55;;;;;;;32.13;20.23;;;-0.20;99.90;;;;;;4963020;28;20204;-72
2022/03/07 00:41:23;;;;;;;34.13;20.80;;;-0.20;99.90;;;;;;4963310;28;20852;-72
2022/03/07 00:43:53;;;;;;;24.85;20.42;;;-0.20;99.90;;;;;;4963263;28;20219;-72
2022/03/07 00:46:21;;;;;;;29.17;19.20;;;-0.30;99.90;;;;;;4962471;28;20857;-72
2022/03/07 00:48:49;;;;;;;29.23;19.25;;;-0.40;99.90;;;;;;4963442;28;20209;-71
2022/03/07 00:51:16;;;;;;;26.92;18.15;;;-0.40;99.90;;;;;;4963249;28;20817;-72
2022/03/07 00:53:46;;;;;;;29.17;19.85;;;-0.40;99.90;;;;;;4963219;28;20208;-72
2022/03/07 00:56:15;;;;;;;30.08;18.65;;;-0.40;99.90;;;;;;4962642;28;20200;-72
2022/03/07 00:58:43;;;;;;;29.63;19.38;;;-0.40;99.90;;;;;;4962681;28;20295;-71
2022/03/07 01:01:14;;;;;;;29.25;19.30;;;-0.50;99.90;;;;;;4963235;28;20215;-72
2022/03/07 01:03:42;;;;;;;27.52;20.42;;;-0.50;99.90;;;;;;4962250;28;20298;-72
2022/03/07 01:06:11;;;;;;;32.40;19.70;;;-0.60;99.90;;;;;;4963238;28;20217;-72
2022/03/07 01:08:39;;;;;;;33.10;22.98;;;-0.60;99.90;;;;;;4962135;28;20727;-72
2022/03/07 01:11:07;;;;;;;29.77;19.38;;;-0.70;99.90;;;;;;4962831;28;20791;-72
2022/03/07 01:13:35;;;;;;;29.33;20.80;;;-0.70;99.90;;;;;;4962476;28;20208;-72
2022/03/07 01:16:03;;;;;;;28.55;18.98;;;-0.70;99.90;;;;;;4962904;28;20208;-72
2022/03/07 01:18:32;;;;;;;30.15;19.55;;;-0.70;99.90;;;;;;4962420;28;20204;-71
2022/03/07 01:21:00;;;;;;;30.27;20.88;;;-0.80;99.90;;;;;;4962747;28;20220;-73
2022/03/07 01:23:28;;;;;;;34.53;21.77;;;-0.80;99.90;;;;;;4962256;28;20204;-71
2022/03/07 01:25:56;;;;;;;32.33;20.25;;;-0.80;99.90;;;;;;4962308;28;20320;-74
2022/03/07 01:28:24;;;;;;;30.98;21.35;;;-0.90;99.90;;;;;;4962757;28;20200;-73
2022/03/07 01:30:52;;;;;;;35.72;22.15;;;-0.90;99.90;;;;;;4962706;28;20228;-74
2022/03/07 01:33:22;;;;;;;27.80;20.42;;;-0.90;99.90;;;;;;4962421;28;20216;-73
2022/03/07 01:35:51;;;;;;;30.20;20.35;;;-0.90;99.90;;;;;;4962439;28;20212;-74
2022/03/07 01:38:19;;;;;;;32.67;21.38;;;-0.90;99.90;;;;;;4962471;28;20801;-72
2022/03/07 01:40:47;;;;;;;29.35;20.55;;;-0.90;99.90;;;;;;4962628;28;20379;-71
2022/03/07 01:43:15;;;;;;;34.78;20.15;;;-1.00;99.90;;;;;;4961706;28;20295;-72
2022/03/07 01:45:43;;;;;;;30.35;21.98;;;-1.00;99.90;;;;;;4962014;28;20716;-73
2022/03/07 01:48:12;;;;;;;38.63;21.00;;;-1.00;99.90;;;;;;4962578;28;20849;-72
2022/03/07 01:50:40;;;;;;;31.90;21.42;;;-1.10;99.90;;;;;;4962612;28;20231;-72
2022/03/07 01:53:09;;;;;;;27.13;19.92;;;-0.90;99.90;;;;;;4962292;28;20212;-72
2022/03/07 01:55:37;;;;;;;31.52;20.17;;;-0.90;99.90;;;;;;4962175;28;20278;-72
2022/03/07 01:58:05;;;;;;;29.45;20.48;;;-1.00;99.90;;;;;;4962218;28;20232;-73
2022/03/07 02:00:33;;;;;;;32.60;21.27;;;-0.90;99.90;;;;;;4961781;28;20233;-70
2022/03/07 02:03:01;;;;;;;34.75;20.00;;;-0.90;99.90;;;;;;4961716;28;20287;-70
2022/03/07 02:05:33;;;;;;;26.17;19.88;;;-0.80;99.90;;;;;;4962033;28;20224;-70
2022/03/07 02:08:01;;;;;;;26.48;19.60;;;-0.70;99.90;;;;;;4962057;28;20688;-70
2022/03/07 02:10:30;;;;;;;35.92;22.45;;;-0.70;99.90;;;;;;4961817;28;20728;-71
2022/03/07 02:12:58;;;;;;;33.75;20.98;;;-0.70;99.90;;;;;;4961565;28;20279;-70
2022/03/07 02:15:26;;;;;;;31.40;19.83;;;-0.80;99.90;;;;;;4961874;28;20666;-71
2022/03/07 02:17:54;;;;;;;26.98;19.80;;;-0.90;99.90;;;;;;4961616;28;20374;-71
2022/03/07 02:20:22;;;;;;;29.88;19.17;;;-0.90;99.90;;;;;;4962106;28;20299;-70
2022/03/07 02:22:51;;;;;;;30.27;20.83;;;-0.90;99.90;;;;;;4961588;28;20211;-71
2022/03/07 02:25:19;;;;;;;29.83;20.45;;;-0.90;99.90;;;;;;4961600;28;20231;-71
2022/03/07 02:27:47;;;;;;;33.70;20.20;;;-0.90;99.90;;;;;;4961861;28;20205;-70
2022/03/07 02:30:15;;;;;;;32.40;20.80;;;-1.00;99.90;;;;;;4962023;28;20224;-71
2022/03/07 02:32:43;;;;;;;34.25;20.67;;;-1.00;99.90;;;;;;4961991;28;20208;-71
2022/03/07 02:35:11;;;;;;;30.77;21.45;;;-1.00;99.90;;;;;;4961254;28;20807;-71
2022/03/07 02:37:41;;;;;;;32.55;19.58;;;-1.10;99.90;;;;;;4961126;28;20840;-70
2022/03/07 02:40:11;;;;;;;34.40;21.17;;;-1.10;99.90;;;;;;4961054;28;20899;-70
2022/03/07 02:42:59;;;;;;;35.85;21.02;;;-1.10;99.90;;;;;;4961089;28;20205;-72
2022/03/07 02:45:27;;;;;;;34.28;21.95;;;-1.20;99.90;;;;;;4960776;28;20361;-72
2022/03/07 02:47:55;;;;;;;35.92;21.65;;;-1.20;99.90;;;;;;4961448;28;20291;-69
2022/03/07 02:50:22;;;;;;;29.38;19.80;;;-1.20;99.90;;;;;;4961241;28;20226;-68
2022/03/07 02:52:50;;;;;;;38.30;21.27;;;-1.20;99.90;;;;;;4960630;28;20210;-69
2022/03/07 02:55:19;;;;;;;33.88;21.85;;;-1.30;99.90;;;;;;4960691;28;20797;-69
2022/03/07 02:57:47;;;;;;;31.38;20.98;;;-1.30;99.90;;;;;;4961577;28;20200;-69
2022/03/07 03:00:16;;;;;;;30.98;20.33;;;-1.40;99.90;;;;;;4960977;28;20224;-69
2022/03/07 03:02:43;;;;;;;31.48;20.33;;;-1.30;99.90;;;;;;4961247;28;20287;-69
2022/03/07 03:05:11;;;;;;;29.83;19.40;;;-1.30;99.90;;;;;;4960786;28;20206;-68
2022/03/07 03:07:39;;;;;;;33.42;21.52;;;-1.30;99.90;;;;;;4960468;28;20226;-70
2022/03/07 03:10:09;;;;;;;36.80;22.20;;;-1.40;99.90;;;;;;4960678;28;20230;-70
2022/03/07 03:12:38;;;;;;;32.90;22.25;;;-1.40;99.90;;;;;;4960352;28;20205;-73
2022/03/07 03:15:07;;;;;;;34.55;22.55;;;-1.40;99.90;;;;;;4961393;28;20236;-72
2022/03/07 03:17:35;;;;;;;29.92;21.40;;;-1.50;99.90;;;;;;4960666;28;20719;-73
2022/03/07 03:20:03;;;;;;;28.85;21.38;;;-1.50;99.90;;;;;;4960338;28;20226;-73
2022/03/07 03:22:32;;;;;;;33.40;21.50;;;-1.50;99.90;;;;;;4960291;28;20203;-73
2022/03/07 03:25:00;;;;;;;31.80;20.65;;;-1.50;99.90;;;;;;4960490;28;20212;-73
2022/03/07 03:27:27;;;;;;;33.38;19.70;;;-1.50;99.90;;;;;;4960624;28;20224;-72
2022/03/07 03:29:57;;;;;;;35.50;19.60;;;-1.60;99.90;;;;;;4960695;28;20226;-73
2022/03/07 03:32:25;;;;;;;33.67;22.25;;;-1.50;99.90;;;;;;4960758;28;20223;-73
2022/03/07 03:34:57;;;;;;;34.50;20.55;;;-1.60;99.90;;;;;;4960752;28;20267;-72
2022/03/07 03:37:25;;;;;;;36.70;21.58;;;-1.60;99.90;;;;;;4960270;28;20200;-72
2022/03/07 03:39:54;;;;;;;31.05;20.30;;;-1.60;99.90;;;;;;4960936;28;20228;-72
2022/03/07 03:42:22;;;;;;;34.28;20.85;;;-1.60;99.90;;;;;;4960914;28;20287;-75
2022/03/07 03:44:50;;;;;;;34.72;21.00;;;-1.60;99.90;;;;;;4960312;28;20251;-71
2022/03/07 03:47:20;;;;;;;33.33;21.83;;;-1.60;99.90;;;;;;4960275;28;20741;-70
2022/03/07 03:49:48;;;;;;;34.00;21.98;;;-1.70;99.90;;;;;;4960190;28;20224;-73
2022/03/07 03:52:16;;;;;;;34.75;21.42;;;-1.70;99.90;;;;;;4959686;28;20283;-72
2022/03/07 03:54:44;;;;;;;39.38;23.65;;;-1.70;99.90;;;;;;4960321;28;20770;-73
2022/03/07 03:57:12;;;;;;;32.83;21.00;;;-1.70;99.90;;;;;;4960598;28;20204;-71
2022/03/07 03:59:40;;;;;;;31.98;20.65;;;-1.60;99.90;;;;;;4959554;28;20235;-72
2022/03/07 04:02:08;;;;;;;32.33;21.58;;;-1.70;99.90;;;;;;4960825;28;20219;-72
2022/03/07 04:04:37;;;;;;;31.70;20.25;;;-1.70;99.90;;;;;;4960531;28;20298;-72
2022/03/07 04:07:06;;;;;;;32.03;21.25;;;-1.70;99.90;;;;;;4964299;28;20223;-71
2022/03/07 04:09:34;;;;;;;27.88;19.90;;;-1.70;99.90;;;;;;4964791;28;20224;-71
2022/03/07 04:12:02;;;;;;;34.20;23.38;;;-1.70;99.90;;;;;;4964020;28;20259;-71
2022/03/07 04:14:30;;;;;;;33.80;20.80;;;-1.80;99.90;;;;;;4963433;28;20204;-71
2022/03/07 04:16:59;;;;;;;38.60;21.73;;;-1.70;99.90;;;;;;4964172;28;20287;-70
2022/03/07 04:19:27;;;;;;;35.28;21.60;;;-1.70;99.90;;;;;;4964982;28;20231;-71
2022/03/07 04:21:56;;;;;;;31.58;20.55;;;-1.70;99.90;;;;;;4966229;28;20200;-71
2022/03/07 04:24:30;;;;;;;34.50;21.60;;;-1.70;99.90;;;;;;4965925;28;20212;-71
2022/03/07 04:26:58;;;;;;;29.88;21.65;;;-1.70;99.90;;;;;;4965210;28;20220;-72
2022/03/07 04:29:26;;;;;;;28.23;20.00;;;-1.70;99.90;;;;;;4964580;28;20228;-72
2022/03/07 04:31:55;;;;;;;37.47;21.25;;;-1.70;99.90;;;;;;4965317;28;20219;-71
2022/03/07 04:34:22;;;;;;;31.58;20.88;;;-1.80;99.90;;;;;;4965400;28;20738;-70
2022/03/07 04:36:50;;;;;;;28.08;20.23;;;-1.80;99.90;;;;;;4965110;28;20296;-70
2022/03/07 04:39:20;;;;;;;31.50;21.35;;;-1.80;99.90;;;;;;4966059;28;20224;-71
2022/03/07 04:41:48;;;;;;;29.58;20.08;;;-1.80;99.90;;;;;;4965965;28;20218;-72
2022/03/07 04:44:16;;;;;;;28.27;19.85;;;-1.80;99.90;;;;;;4965602;28;20203;-71
2022/03/07 04:46:44;;;;;;;31.90;21.40;;;-1.80;99.90;;;;;;4965854;28;20215;-72
2022/03/07 04:49:12;;;;;;;30.90;20.73;;;-1.80;99.90;;;;;;4965083;28;20251;-73
2022/03/07 04:51:45;;;;;;;26.92;20.45;;;-1.80;99.90;;;;;;4963978;28;20214;-71
2022/03/07 04:54:14;;;;;;;27.17;19.95;;;-1.80;99.90;;;;;;4963070;28;20215;-73
2022/03/07 04:56:47;;;;;;;24.52;19.23;;;-1.80;99.90;;;;;;4963490;28;20208;-70
2022/03/07 04:59:15;;;;;;;32.90;19.92;;;-1.90;99.90;;;;;;4963132;28;20224;-70
2022/03/07 05:01:43;;;;;;;36.80;20.73;;;-1.90;99.90;;;;;;4962879;28;20204;-70
2022/03/07 05:04:11;;;;;;;30.38;18.80;;;-1.80;99.90;;;;;;4962837;28;20209;-70
2022/03/07 05:06:39;;;;;;;28.55;20.33;;;-1.80;99.90;;;;;;4962827;28;20848;-70
2022/03/07 05:09:07;;;;;;;35.35;19.70;;;-1.90;99.90;;;;;;4962629;28;20630;-70
2022/03/07 05:11:35;;;;;;;29.27;21.70;;;-1.90;99.90;;;;;;4963268;28;20386;-71
2022/03/07 05:14:05;;;;;;;28.33;19.23;;;-1.90;99.90;;;;;;4962708;28;20200;-72
2022/03/07 05:16:32;;;;;;;28.48;18.75;;;-1.90;99.90;;;;;;4961247;28;20295;-71
2022/03/07 05:19:00;;;;;;;26.77;20.25;;;-1.90;99.90;;;;;;4962276;28;20307;-71
2022/03/07 05:21:29;;;;;;;29.10;19.70;;;-1.90;99.90;;;;;;4962356;28;20204;-71
2022/03/07 05:23:56;;;;;;;26.00;19.00;;;-1.90;99.90;;;;;;4962741;28;20397;-72
2022/03/07 05:26:24;;;;;;;28.25;19.00;;;-1.90;99.90;;;;;;4962093;28;20209;-76
2022/03/07 05:28:52;;;;;;;29.23;17.48;;;-1.80;99.90;;;;;;4962429;28;20231;-72
2022/03/07 05:31:21;;;;;;;28.48;18.10;;;-1.80;99.90;;;;;;4961441;28;20210;-72
2022/03/07 05:33:49;;;;;;;22.92;17.60;;;-1.80;99.90;;;;;;4962495;28;20207;-72
2022/03/07 05:36:17;;;;;;;29.48;20.20;;;-1.80;99.90;;;;;;4961792;28;20208;-72
2022/03/07 05:38:45;;;;;;;25.85;16.77;;;-1.80;99.90;;;;;;4962226;28;20196;-71
2022/03/07 05:41:13;;;;;;;26.75;18.48;;;-1.80;99.90;;;;;;4962396;28;20204;-72
2022/03/07 05:43:41;;;;;;;23.45;17.10;;;-1.70;99.90;;;;;;4960965;28;20208;-73
2022/03/07 05:46:14;;;;;;;31.40;18.17;;;-1.70;99.90;;;;;;4962013;28;20222;-72
2022/03/07 05:48:43;;;;;;;25.00;18.55;;;-1.80;99.90;;;;;;4958812;28;20623;-72
2022/03/07 05:51:11;;;;;;;26.88;18.67;;;-1.70;99.90;;;;;;4961541;28;20819;-72
2022/03/07 05:53:39;;;;;;;27.40;18.42;;;-1.70;99.90;;;;;;4959092;28;20251;-73
2022/03/07 05:56:07;;;;;;;23.02;16.83;;;-1.70;99.90;;;;;;4961589;28;20287;-73
2022/03/07 05:58:35;;;;;;;25.05;17.98;;;-1.80;99.90;;;;;;4961791;28;20255;-73
2022/03/07 06:01:03;;;;;;;26.63;17.35;;;-1.80;99.90;;;;;;4961964;28;20307;-73
2022/03/07 06:03:31;;;;;;;25.55;18.25;;;-1.70;99.90;;;;;;4961645;28;20295;-73
2022/03/07 06:06:01;;;;;;;22.15;17.45;;;-1.70;99.90;;;;;;4961237;28;20204;-73
2022/03/07 06:08:29;;;;;;;25.10;18.40;;;-1.70;99.90;;;;;;4961524;28;20216;-70
2022/03/07 06:10:57;;;;;;;24.10;17.83;;;-1.70;99.90;;;;;;4961151;28;20872;-69
2022/03/07 06:13:25;;;;;;;26.00;18.00;;;-1.70;99.90;;;;;;4961094;28;20237;-70
2022/03/07 06:15:53;;;;;;;30.25;18.35;;;-1.70;99.90;;;;;;4960935;28;20197;-68
2022/03/07 06:18:20;;;;;;;23.30;17.02;;;-1.70;99.90;;;;;;4961290;28;20675;-68
2022/03/07 06:20:48;;;;;;;29.30;18.30;;;-1.70;99.90;;;;;;4961657;28;20220;-69
2022/03/07 06:23:18;;;;;;;26.85;19.00;;;-1.70;99.90;;;;;;4961892;28;20189;-69
2022/03/07 06:25:45;;;;;;;27.27;19.27;;;-1.70;99.90;;;;;;4962071;28;20204;-68
2022/03/07 06:28:14;;;;;;;27.83;17.85;;;-1.60;99.90;;;;;;4961690;28;20217;-70
2022/03/07 06:30:44;;;;;;;23.23;16.27;;;-1.60;99.90;;;;;;4963313;28;20315;-69
2022/03/07 06:33:14;;;;;;;28.73;18.95;;;-1.50;99.90;;;;;;4960606;28;20660;-68
2022/03/07 06:35:44;;;;;;;24.52;18.67;;;-1.50;99.90;;;;;;4961145;28;20684;-68
2022/03/07 06:38:12;;;;;;;32.95;20.60;;;-1.50;99.90;;;;;;4960719;28;20203;-68
2022/03/07 06:40:42;;;;;;;29.55;19.65;;;-1.40;99.90;;;;;;4962323;28;20223;-69
2022/03/07 06:43:10;;;;;;;22.25;16.50;;;-1.40;99.90;;;;;;4960393;28;20224;-69
2022/03/07 06:45:38;;;;;;;27.00;20.00;;;-1.30;99.90;;;;;;4960454;28;20792;-69
2022/03/07 06:48:09;;;;;;;33.15;20.25;;;-1.20;99.90;;;;;;4960684;28;20227;-67
2022/03/07 06:50:36;;;;;;;24.75;19.00;;;-1.10;99.90;;;;;;4959436;28;20846;-71
2022/03/07 06:53:04;;;;;;;24.83;18.40;;;-1.10;99.90;;;;;;4961689;28;20199;-75
2022/03/07 06:55:32;;;;;;;28.80;18.88;;;-1.00;99.90;;;;;;4949672;28;20280;-75
2022/03/07 06:58:03;;;;;;;28.33;20.38;;;-1.00;99.90;;;;;;4944688;28;20264;-74
2022/03/07 07:00:31;;;;;;;29.83;19.50;;;-0.90;99.90;;;;;;4956211;28;20243;-74
2022/03/07 07:02:59;;;;;;;29.02;19.70;;;-0.80;99.90;;;;;;4956088;28;20199;-74
2022/03/07 07:05:28;;;;;;;27.77;19.15;;;-0.70;99.90;;;;;;4955623;28;20838;-74
2022/03/07 07:07:56;;;;;;;28.63;19.52;;;-0.60;99.90;;;;;;4945292;28;20205;-75
2022/03/07 07:10:25;;;;;;;25.77;18.30;;;-0.60;99.90;;;;;;4947092;28;20219;-74
2022/03/07 07:12:53;;;;;;;30.58;19.85;;;-0.50;99.90;;;;;;4953075;28;20315;-75
2022/03/07 07:15:22;;;;;;;34.38;19.45;;;-0.40;99.90;;;;;;4955458;28;20227;-75
2022/03/07 07:17:50;;;;;;;25.98;19.90;;;-0.30;99.90;;;;;;4946209;28;20201;-74
2022/03/07 07:20:20;;;;;;;31.58;21.20;;;-0.10;99.90;;;;;;4950387;28;20217;-74
2022/03/07 07:22:48;;;;;;;31.17;21.52;;;-0.10;99.90;;;;;;4951206;28;20413;-75
2022/03/07 07:25:16;;;;;;;31.23;20.50;;;0.00;99.90;;;;;;4950358;28;20198;-80
2022/03/07 07:27:44;;;;;;;24.13;17.88;;;0.10;99.90;;;;;;4951559;28;20212;-76
2022/03/07 07:30:13;;;;;;;23.55;18.70;;;0.10;99.90;;;;;;4949678;28;20243;-76
2022/03/07 07:32:47;;;;;;;30.55;20.35;;;0.10;99.90;;;;;;4945726;28;20201;-75
2022/03/07 07:35:15;;;;;;;22.73;16.73;;;0.10;99.90;;;;;;4948555;28;20196;-74
2022/03/07 07:37:45;;;;;;;25.95;19.98;;;0.20;99.90;;;;;;4950602;28;20815;-74
2022/03/07 07:40:13;;;;;;;22.98;19.08;;;0.10;99.90;;;;;;4954848;28;20227;-74
2022/03/07 07:42:41;;;;;;;25.10;18.75;;;0.20;99.90;;;;;;4955942;28;20203;-76
2022/03/07 07:45:10;;;;;;;24.77;18.23;;;0.20;99.90;;;;;;4956349;28;20304;-75
2022/03/07 07:47:38;;;;;;;30.45;17.70;;;0.30;99.90;;;;;;4961807;28;20215;-76
2022/03/07 07:50:09;;;;;;;25.20;19.38;;;0.40;99.90;;;;;;4959379;28;20228;-76
2022/03/07 07:52:37;;;;;;;28.17;18.83;;;0.50;99.90;;;;;;4967629;28;20292;-81
2022/03/07 07:55:06;;;;;;;23.55;17.42;;;0.50;99.90;;;;;;4964705;28;20311;-79
2022/03/07 07:57:35;;;;;;;30.00;19.35;;;0.60;99.90;;;;;;4965702;28;20845;-74
2022/03/07 08:00:04;;;;;;;23.95;16.00;;;0.70;99.90;;;;;;4963021;28;20242;-75
2022/03/07 08:02:45;;;;;;;25.73;20.25;;;0.70;99.90;;;;;;4960066;28;20909;-79
2022/03/07 08:05:14;;;;;;;23.80;17.00;;;0.70;99.90;;;;;;4966548;28;20198;-74
2022/03/07 08:07:42;;;;;;;24.85;17.55;;;0.80;99.90;;;;;;4965507;28;20208;-74
2022/03/07 08:10:11;;;;;;;23.55;16.98;;;0.80;99.90;;;;;;4965292;28;20231;-73
2022/03/07 08:12:39;;;;;;;24.10;16.35;;;0.90;99.90;;;;;;4966021;28;20204;-74
2022/03/07 08:15:11;;;;;;;20.25;15.60;;;0.90;99.90;;;;;;4965681;28;20231;-74
2022/03/07 08:17:43;;;;;;;20.55;14.57;;;1.00;99.90;;;;;;4965504;28;20203;-73
2022/03/07 08:20:12;;;;;;;22.88;14.13;;;1.20;99.90;;;;;;4960735;28;20315;-72
2022/03/07 08:22:46;;;;;;;19.55;14.88;;;1.30;99.90;;;;;;4960635;28;20808;-73
2022/03/07 08:25:14;;;;;;;18.05;14.07;;;1.30;99.90;;;;;;4966328;28;20197;-72
2022/03/07 08:27:43;;;;;;;17.30;13.95;;;1.40;99.90;;;;;;4960751;28;20196;-71
2022/03/07 08:30:12;;;;;;;16.92;13.55;;;1.50;99.90;;;;;;4956625;28;20231;-72
2022/03/07 08:32:40;;;;;;;13.85;12.40;;;1.60;99.90;;;;;;4954346;28;20209;-72
2022/03/07 08:35:10;;;;;;;17.23;13.25;;;1.60;99.90;;;;;;4955541;28;20204;-69
2022/03/07 08:37:44;;;;;;;18.70;13.25;;;1.70;99.90;;;;;;4950599;28;20208;-68
2022/03/07 08:40:13;;;;;;;16.92;13.57;;;1.80;99.90;;;;;;4954446;28;20213;-68
2022/03/07 08:42:41;;;;;;;17.85;12.98;;;1.90;99.90;;;;;;4953199;28;20197;-67
2022/03/07 08:45:10;;;;;;;14.00;12.27;;;2.00;99.90;;;;;;4954252;28;20204;-68
2022/03/07 08:47:40;;;;;;;14.82;11.35;;;2.10;99.90;;;;;;4956128;28;20235;-69
2022/03/07 08:50:10;;;;;;;18.20;13.57;;;2.20;99.90;;;;;;4954512;28;20227;-70
2022/03/07 08:52:41;;;;;;;12.77;9.73;;;2.30;99.90;;;;;;4952835;28;20230;-68
2022/03/07 08:55:10;;;;;;;14.23;11.70;;;2.50;99.90;;;;;;4961810;28;20273;-69
2022/03/07 08:57:39;;;;;;;11.73;9.10;;;2.60;99.90;;;;;;4953194;28;20288;-69
2022/03/07 09:00:10;;;;;;;9.00;8.10;;;2.70;99.90;;;;;;4953324;28;20267;-69
2022/03/07 09:02:46;;;;;;;11.25;9.45;;;2.80;99.90;;;;;;4959809;28;20203;-70
2022/03/07 09:05:15;;;;;;;10.07;8.13;;;2.90;99.90;;;;;;4961902;28;20243;-72
2022/03/07 09:07:42;;;;;;;7.22;6.53;;;3.00;99.90;;;;;;4959386;28;20207;-72
2022/03/07 09:10:12;;;;;;;8.50;6.93;;;3.10;99.90;;;;;;4951659;28;20248;-68
2022/03/07 09:12:40;;;;;;;10.23;6.28;;;3.20;99.90;;;;;;4958445;28;20795;-69
2022/03/07 09:15:08;;;;;;;6.50;5.25;;;3.30;99.90;;;;;;4961761;28;20192;-70
2022/03/07 09:17:36;;;;;;;6.78;5.93;;;3.40;99.90;;;;;;4961803;28;20755;-68
2022/03/07 09:20:05;;;;;;;6.55;4.93;;;3.50;99.90;;;;;;4962021;28;20216;-69
2022/03/07 09:22:34;;;;;;;7.95;4.55;;;3.60;99.90;;;;;;4961806;28;20197;-71
2022/03/07 09:25:04;;;;;;;5.13;4.65;;;3.70;99.90;;;;;;4959088;28;20228;-67
2022/03/07 09:27:34;;;;;;;5.20;4.72;;;3.70;99.90;;;;;;4960519;28;20287;-66
2022/03/07 09:30:01;;;;;;;4.80;4.40;;;3.80;99.90;;;;;;4960494;28;20676;-67
2022/03/07 09:32:29;;;;;;;5.90;4.47;;;3.90;99.90;;;;;;4960696;28;20691;-66
2022/03/07 09:35:00;;;;;;;4.85;3.50;;;4.00;99.90;;;;;;4960760;28;20209;-69
2022/03/07 09:37:30;;;;;;;4.10;3.72;;;4.10;99.90;;;;;;4958564;28;20204;-68
2022/03/07 09:39:57;;;;;;;5.53;4.28;;;4.20;99.90;;;;;;4949827;28;20224;-70
2022/03/07 09:42:27;;;;;;;4.15;3.60;;;4.30;99.90;;;;;;4950844;28;20193;-67
2022/03/07 09:44:56;;;;;;;4.30;3.63;;;4.40;99.90;;;;;;4949400;28;20330;-67
2022/03/07 09:47:25;;;;;;;3.15;2.95;;;4.50;99.90;;;;;;4948462;28;20259;-67
2022/03/07 09:49:54;;;;;;;3.75;2.83;;;4.60;99.90;;;;;;4951214;28;20220;-69
2022/03/07 09:52:21;;;;;;;2.67;2.47;;;4.60;99.90;;;;;;4954609;28;20197;-71
2022/03/07 09:54:54;;;;;;;3.80;1.95;;;4.70;99.90;;;;;;4949138;28;20204;-70
2022/03/07 09:57:25;;;;;;;3.90;2.47;;;4.90;99.90;;;;;;4956417;28;20206;-69
2022/03/07 09:59:53;;;;;;;2.20;2.00;;;5.00;99.90;;;;;;4946552;28;20220;-70
2022/03/07 10:02:25;;;;;;;1.75;1.65;;;5.10;99.90;;;;;;4949632;28;20209;-68
2022/03/07 10:05:01;;;;;;;2.55;2.30;;;5.10;99.90;;;;;;4944040;28;21170;-68
2022/03/07 10:07:29;;;;;;;2.90;2.10;;;5.20;99.90;;;;;;4951262;28;20819;-67
2022/03/07 10:10:08;;;;;;;2.42;2.33;;;5.30;99.90;;;;;;4962864;28;20279;-67
2022/03/07 10:12:45;;;;;;;2.78;2.58;;;5.40;99.90;;;;;;4963777;28;20347;-66
2022/03/07 10:15:14;;;;;;;2.17;1.90;;;5.50;99.90;;;;;;4964316;28;20294;-66
2022/03/07 10:17:49;;;;;;;2.25;2.15;;;5.50;99.90;;;;;;4947978;28;20206;-66
2022/03/07 10:20:19;;;;;;;2.50;2.08;;;5.70;99.90;;;;;;4945083;28;20225;-68
2022/03/07 10:22:49;;;;;;;2.67;2.47;;;5.80;99.90;;;;;;4955841;28;20215;-66
2022/03/07 10:25:23;;;;;;;3.30;2.42;;;5.80;99.90;;;;;;4963606;28;20235;-66
2022/03/07 10:27:51;;;;;;;4.32;2.45;;;5.90;99.90;;;;;;4963450;28;20295;-70
2022/03/07 10:30:22;;;;;;;1.67;1.58;;;6.00;99.90;;;;;;4964627;28;20220;-69
2022/03/07 10:32:56;;;;;;;1.67;1.58;;;6.10;99.90;;;;;;4963313;28;20207;-70
2022/03/07 10:35:27;;;;;;;1.23;1.23;;;6.20;99.90;;;;;;4963387;28;20285;-69
2022/03/07 10:38:01;;;;;;;1.30;1.20;;;6.20;99.90;;;;;;4963496;28;20216;-69
2022/03/07 10:40:30;;;;;;;1.20;1.10;;;6.20;99.90;;;;;;4964326;28;20224;-68
2022/03/07 10:43:00;;;;;;;1.58;1.40;;;6.20;99.90;;;;;;4962833;28;20214;-67
2022/03/07 10:45:33;;;;;;;2.63;2.25;;;6.20;99.90;;;;;;4962900;28;20685;-66
2022/03/07 10:48:06;;;;;;;3.15;2.33;;;6.30;99.90;;;;;;4961814;28;20384;-65
2022/03/07 10:50:33;;;;;;;3.08;2.10;;;6.40;99.90;;;;;;4963269;28;20235;-64
2022/03/07 10:53:04;;;;;;;2.45;2.00;;;6.40;99.90;;;;;;4962877;28;20854;-65
2022/03/07 10:55:33;;;;;;;1.63;1.55;;;6.50;99.90;;;;;;4963038;28;20209;-65
2022/03/07 10:58:09;;;;;;;1.95;1.85;;;6.60;99.90;;;;;;4963025;28;20210;-67
2022/03/07 11:00:49;;;;;;;3.28;2.65;;;6.70;99.90;;;;;;4963307;28;20311;-67
2022/03/07 11:03:20;;;;;;;2.28;2.15;;;6.80;99.90;;;;;;4963025;28;20253;-67
2022/03/07 11:05:48;;;;;;;1.17;1.17;;;6.90;99.90;;;;;;4963668;28;20208;-67
2022/03/07 11:08:20;;;;;;;1.35;1.30;;;6.90;99.90;;;;;;4953222;28;20213;-68
2022/03/07 11:10:51;;;;;;;5.00;2.00;;;7.00;99.90;;;;;;4943694;28;20228;-68
2022/03/07 11:13:25;;;;;;;2.13;2.00;;;7.00;99.90;;;;;;4963573;28;20216;-68
2022/03/07 11:15:56;;;;;;;1.45;1.45;;;6.90;99.90;;;;;;4959757;28;20292;-68
2022/03/07 11:18:28;;;;;;;3.05;2.40;;;7.00;99.90;;;;;;4944358;29;20216;-68
2022/03/07 11:20:57;;;;;;;1.83;1.73;;;6.90;99.90;;;;;;4944982;28;20256;-66
2022/03/07 11:23:25;;;;;;;2.30;2.20;;;7.00;99.90;;;;;;4963185;28;20524;-67
2022/03/07 11:25:56;;;;;;;1.77;1.67;;;7.10;99.90;;;;;;4963555;28;20196;-68
2022/03/07 11:28:27;;;;;;;2.10;1.92;;;7.10;99.90;;;;;;4962901;28;20246;-68
2022/03/07 11:30:55;;;;;;;2.20;1.70;;;7.10;99.90;;;;;;4963909;28;20726;-70
2022/03/07 11:33:34;;;;;;;2.08;1.92;;;7.30;99.90;;;;;;4959921;28;20284;-68
2022/03/07 11:36:04;;;;;;;2.70;2.55;;;7.30;99.90;;;;;;4959174;28;20207;-68
2022/03/07 11:38:33;;;;;;;2.63;2.20;;;7.30;99.90;;;;;;4963220;28;20201;-69
2022/03/07 11:41:03;;;;;;;2.00;1.70;;;7.30;99.90;;;;;;4967411;28;20726;-70
2022/03/07 11:43:35;;;;;;;2.10;2.00;;;7.40;99.90;;;;;;4967697;28;20205;-69
2022/03/07 11:46:03;;;;;;;2.88;2.17;;;7.40;99.90;;;;;;4966764;28;20314;-70
2022/03/07 11:48:47;;;;;;;1.40;1.30;;;7.30;99.90;;;;;;4966498;28;20208;-71
2022/03/07 11:51:17;;;;;;;1.73;1.63;;;7.40;99.90;;;;;;4969696;28;20226;-70
2022/03/07 11:53:47;;;;;;;0.93;0.93;;;7.30;99.90;;;;;;4955105;28;20420;-69
2022/03/07 11:56:19;;;;;;;1.20;1.20;;;7.20;99.90;;;;;;4947377;28;20205;-70
2022/03/07 11:58:49;;;;;;;2.15;2.03;;;7.30;99.90;;;;;;4947498;29;20197;-71
2022/03/07 12:01:18;;;;;;;3.88;2.33;;;7.40;99.90;;;;;;4940637;29;20197;-71
2022/03/07 12:03:48;;;;;;;2.40;2.20;;;7.50;99.90;;;;;;4939921;29;20668;-70
2022/03/07 12:06:18;;;;;;;3.42;2.28;;;7.50;99.90;;;;;;4940248;29;20201;-71
2022/03/07 12:08:48;;;;;;;5.53;2.13;;;7.70;99.90;;;;;;4940071;29;20209;-69
2022/03/07 12:11:27;;;;;;;2.95;2.38;;;7.70;99.90;;;;;;4940218;29;20225;-70
2022/03/07 12:14:02;;;;;;;2.60;2.40;;;7.80;99.90;;;;;;4939948;29;20215;-71
2022/03/07 12:16:32;;;;;;;2.60;2.50;;;7.80;99.90;;;;;;4940502;29;20292;-70
2022/03/07 12:19:10;;;;;;;3.53;2.33;;;7.90;99.90;;;;;;4940998;29;20221;-69
2022/03/07 12:21:41;;;;;;;3.38;2.80;;;7.80;99.90;;;;;;4940616;29;20200;-70
2022/03/07 12:24:10;;;;;;;2.70;2.50;;;7.90;99.90;;;;;;4939296;29;20872;-69
2022/03/07 12:26:48;;;;;;;2.38;2.17;;;7.90;99.90;;;;;;4942656;28;20851;-69
2022/03/07 12:29:17;;;;;;;1.92;1.83;;;7.90;99.90;;;;;;4944112;29;20231;-69
2022/03/07 12:31:50;;;;;;;1.90;0.90;;;7.90;99.40;;;;;;4944320;29;20266;-69
2022/03/07 12:34:24;;;;;;;3.33;1.45;;;8.00;97.80;;;;;;4943706;29;20208;-70
2022/03/07 12:37:00;;;;;;;3.00;1.73;;;8.00;97.50;;;;;;4943290;29;20856;-71
2022/03/07 12:39:28;;;;;;;1.40;1.30;;;8.00;98.10;;;;;;4944602;29;20899;-70
2022/03/07 12:42:01;;;;;;;1.30;1.20;;;8.00;98.40;;;;;;4943219;29;20214;-70
2022/03/07 12:44:29;;;;;;;1.40;1.40;;;8.00;98.50;;;;;;4943299;29;20733;-71
2022/03/07 12:46:57;;;;;;;2.00;1.20;;;8.10;98.20;;;;;;4943850;29;20273;-71
2022/03/07 12:49:26;;;;;;;2.60;1.70;;;8.10;98.30;;;;;;4943477;29;20241;-70